createdAt,value
2019-02-17T00:02:24.600Z,17.62
2019-02-17T00:04:50.990Z,19.52
2019-02-17T00:07:17.367Z,19.87
2019-02-17T00:09:43.762Z,18.90
2019-02-17T00:12:10.141Z,21.23
2019-02-17T00:14:36.505Z,19.45
2019-02-17T00:17:02.958Z,18.50
2019-02-17T00:19:29.295Z,17.57
2019-02-17T00:21:55.563Z,19.95
2019-02-17T00:24:21.870Z,20.15
2019-02-17T00:26:48.150Z,23.55
2019-02-17T00:29:14.578Z,17.48
2019-02-17T00:31:40.992Z,20.45
2019-02-17T00:34:07.280Z,21.70
2019-02-17T00:36:33.677Z,19.67
2019-02-17T00:38:59.989Z,19.67
2019-02-17T00:41:26.274Z,18.92
2019-02-17T00:43:52.573Z,21.05
2019-02-17T00:46:18.867Z,18.70
2019-02-17T00:48:45.477Z,24.25
2019-02-17T00:51:11.891Z,19.73
2019-02-17T00:53:38.168Z,22.77
2019-02-17T00:56:04.736Z,19.37
2019-02-17T00:58:30.980Z,20.40
2019-02-17T01:00:57.252Z,19.37
2019-02-17T01:03:23.657Z,18.37
2019-02-17T01:05:49.988Z,18.77
2019-02-17T01:08:16.323Z,21.23
2019-02-17T01:10:42.697Z,22.07
2019-02-17T01:13:09.019Z,18.20
2019-02-17T01:15:35.470Z,18.30
2019-02-17T01:18:01.980Z,19.98
2019-02-17T01:20:28.368Z,18.32
2019-02-17T01:22:54.691Z,19.80
2019-02-17T01:25:21.172Z,18.37
2019-02-17T01:27:47.480Z,18.87
2019-02-17T01:30:13.973Z,20.55
2019-02-17T01:32:40.572Z,20.52
2019-02-17T01:35:07.032Z,19.75
2019-02-17T01:37:33.311Z,20.50
2019-02-17T01:39:59.708Z,18.30
2019-02-17T01:42:25.977Z,20.32
2019-02-17T01:44:52.295Z,20.88
2019-02-17T01:47:18.681Z,18.48
2019-02-17T01:49:45.134Z,18.90
2019-02-17T01:52:11.485Z,20.30
2019-02-17T01:54:37.873Z,17.80
2019-02-17T01:57:04.504Z,19.45
2019-02-17T01:59:31.104Z,18.55
2019-02-17T02:01:57.438Z,19.95
2019-02-17T02:04:23.952Z,19.82
2019-02-17T02:06:50.230Z,21.25
2019-02-17T02:09:16.572Z,24.98
2019-02-17T02:11:43.248Z,21.97
2019-02-17T02:14:09.542Z,18.42
2019-02-17T02:16:35.841Z,19.15
2019-02-17T02:19:02.160Z,21.42
2019-02-17T02:21:28.438Z,21.37
2019-02-17T02:23:54.729Z,17.75
2019-02-17T02:26:21.205Z,20.90
2019-02-17T02:28:47.734Z,17.32
2019-02-17T02:31:14.131Z,21.12
2019-02-17T02:33:40.462Z,20.32
2019-02-17T02:36:06.936Z,17.60
2019-02-17T02:38:33.330Z,21.97
2019-02-17T02:40:59.829Z,21.05
2019-02-17T02:43:26.203Z,18.52
2019-02-17T02:45:52.502Z,20.65
2019-02-17T02:48:18.945Z,17.25
2019-02-17T02:50:45.396Z,19.67
2019-02-17T02:53:11.860Z,16.93
2019-02-17T02:55:38.127Z,21.07
2019-02-17T02:58:04.683Z,18.65
2019-02-17T03:00:31.176Z,21.02
2019-02-17T03:02:57.724Z,16.95
2019-02-17T03:05:24.006Z,19.02
2019-02-17T03:07:50.525Z,16.80
2019-02-17T03:10:16.850Z,19.23
2019-02-17T03:12:43.202Z,17.12
2019-02-17T03:15:09.823Z,15.45
2019-02-17T03:17:36.232Z,19.77
2019-02-17T03:20:04.818Z,22.27
2019-02-17T03:22:31.118Z,20.23
2019-02-17T03:24:57.573Z,17.42
2019-02-17T03:27:23.911Z,16.77
2019-02-17T03:29:50.357Z,14.90
2019-02-17T03:32:16.834Z,15.13
2019-02-17T03:34:43.120Z,20.23
2019-02-17T03:37:09.423Z,21.27
2019-02-17T03:39:35.856Z,19.10
2019-02-17T03:42:02.401Z,15.80
2019-02-17T03:44:28.686Z,17.98
2019-02-17T03:46:55.009Z,15.85
2019-02-17T03:49:21.525Z,19.65
2019-02-17T03:51:48.021Z,18.55
2019-02-17T03:54:14.333Z,14.55
2019-02-17T03:56:40.575Z,17.25
2019-02-17T03:59:07.000Z,15.35
2019-02-17T04:01:33.507Z,19.05
2019-02-17T04:04:00.011Z,16.02
2019-02-17T04:06:26.472Z,15.80
2019-02-17T04:08:52.995Z,15.10
2019-02-17T04:11:19.673Z,17.48
2019-02-17T04:13:46.065Z,18.70
2019-02-17T04:16:12.541Z,15.38
2019-02-17T04:18:39.168Z,15.38
2019-02-17T04:21:05.668Z,16.10
2019-02-17T04:23:32.053Z,15.65
2019-02-17T04:25:58.537Z,19.20
2019-02-17T04:28:24.921Z,19.10
2019-02-17T04:30:51.378Z,15.88
2019-02-17T04:33:17.752Z,12.28
2019-02-17T04:35:44.023Z,17.05
2019-02-17T04:38:10.412Z,15.80
2019-02-17T04:40:36.706Z,16.32
2019-02-17T04:43:03.207Z,16.23
2019-02-17T04:45:29.609Z,13.25
2019-02-17T04:47:55.968Z,17.10
2019-02-17T04:50:22.410Z,16.25
2019-02-17T04:52:49.007Z,13.35
2019-02-17T04:55:15.552Z,15.38
2019-02-17T04:57:41.948Z,12.30
2019-02-17T05:00:08.545Z,13.95
2019-02-17T05:02:35.014Z,12.90
2019-02-17T05:05:01.390Z,15.13
2019-02-17T05:07:27.844Z,15.50
2019-02-17T05:09:54.266Z,14.18
2019-02-17T05:12:20.561Z,11.95
2019-02-17T05:14:46.952Z,11.45
2019-02-17T05:17:13.661Z,13.45
2019-02-17T05:19:39.974Z,12.63
2019-02-17T05:22:06.485Z,15.03
2019-02-17T05:24:32.872Z,19.95
2019-02-17T05:26:59.253Z,18.48
2019-02-17T05:29:25.526Z,18.25
2019-02-17T05:31:51.836Z,15.25
2019-02-17T05:34:18.164Z,17.23
2019-02-17T05:36:44.535Z,16.93
2019-02-17T05:39:10.871Z,18.75
2019-02-17T05:41:37.258Z,13.05
2019-02-17T05:44:03.676Z,15.32
2019-02-17T05:46:30.926Z,18.50
2019-02-17T05:48:57.337Z,15.10
2019-02-17T05:51:23.701Z,14.47
2019-02-17T05:53:50.219Z,15.70
2019-02-17T05:56:16.537Z,14.65
2019-02-17T05:58:42.989Z,14.15
2019-02-17T06:01:09.423Z,12.68
2019-02-17T06:03:40.848Z,13.32
2019-02-17T06:06:07.242Z,14.63
2019-02-17T06:08:33.651Z,15.60
2019-02-17T06:11:00.075Z,20.52
2019-02-17T06:13:26.438Z,13.43
2019-02-17T06:15:52.731Z,14.15
2019-02-17T06:18:19.195Z,15.38
2019-02-17T06:20:45.610Z,15.43
2019-02-17T06:23:12.078Z,14.30
2019-02-17T06:25:38.394Z,14.07
2019-02-17T06:28:04.632Z,14.13
2019-02-17T06:30:30.916Z,13.55
2019-02-17T06:32:57.349Z,13.50
2019-02-17T06:35:23.736Z,16.23
2019-02-17T06:37:50.017Z,13.62
2019-02-17T06:40:16.366Z,16.27
2019-02-17T06:42:42.930Z,16.20
2019-02-17T06:45:09.428Z,13.95
2019-02-17T06:47:35.804Z,14.47
2019-02-17T06:50:02.616Z,13.53
2019-02-17T06:52:29.000Z,12.98
2019-02-17T06:55:06.041Z,14.20
2019-02-17T06:57:35.189Z,12.95
2019-02-17T07:00:09.303Z,13.13
2019-02-17T07:02:35.579Z,14.00
2019-02-17T07:05:04.028Z,15.72
2019-02-17T07:07:30.524Z,12.88
2019-02-17T07:09:56.940Z,15.58
2019-02-17T07:12:23.369Z,13.40
2019-02-17T07:14:49.771Z,14.07
2019-02-17T07:17:16.243Z,16.57
2019-02-17T07:19:42.885Z,14.53
2019-02-17T07:22:09.293Z,14.63
2019-02-17T07:24:35.601Z,18.82
2019-02-17T07:27:02.086Z,13.25
2019-02-17T07:29:28.481Z,16.57
2019-02-17T07:31:54.907Z,15.05
2019-02-17T07:34:21.279Z,14.20
2019-02-17T07:36:47.580Z,15.32
2019-02-17T07:39:13.960Z,14.83
2019-02-17T07:41:40.252Z,16.25
2019-02-17T07:44:06.625Z,19.23
2019-02-17T07:46:32.927Z,13.65
2019-02-17T07:48:59.218Z,13.30
2019-02-17T07:51:25.705Z,17.73
2019-02-17T07:53:52.033Z,14.07
2019-02-17T07:56:18.399Z,17.57
2019-02-17T07:58:44.917Z,13.40
2019-02-17T08:01:11.190Z,16.10
2019-02-17T08:03:37.493Z,17.57
2019-02-17T08:06:03.929Z,31.37
2019-02-17T08:08:30.307Z,51.13
2019-02-17T08:11:03.738Z,36.17
2019-02-17T08:13:25.123Z,31.62
2019-02-17T08:15:51.421Z,38.53
2019-02-17T08:18:18.045Z,29.10
2019-02-17T08:20:44.449Z,25.40
2019-02-17T08:23:10.850Z,16.93
2019-02-17T08:25:37.337Z,13.88
2019-02-17T08:28:03.866Z,18.42
2019-02-17T08:30:30.174Z,15.95
2019-02-17T08:32:56.495Z,16.40
2019-02-17T08:35:22.777Z,14.98
2019-02-17T08:37:49.199Z,13.75
2019-02-17T08:40:15.444Z,16.67
2019-02-17T08:42:41.858Z,13.68
2019-02-17T08:45:08.555Z,13.65
2019-02-17T08:47:34.989Z,17.55
2019-02-17T08:50:01.537Z,15.63
2019-02-17T08:52:27.926Z,11.70
2019-02-17T08:54:54.205Z,14.85
2019-02-17T08:57:20.715Z,16.85
2019-02-17T08:59:47.113Z,13.00
2019-02-17T09:02:13.368Z,13.45
2019-02-17T09:04:39.979Z,16.55
2019-02-17T09:07:06.552Z,17.15
2019-02-17T09:09:33.099Z,14.60
2019-02-17T09:11:59.500Z,13.58
2019-02-17T09:14:25.918Z,15.35
2019-02-17T09:16:53.072Z,16.35
2019-02-17T09:19:19.396Z,14.05
2019-02-17T09:21:45.680Z,18.52
2019-02-17T09:24:12.163Z,22.60
2019-02-17T09:26:38.485Z,22.85
2019-02-17T09:29:05.062Z,17.12
2019-02-17T09:31:31.324Z,15.08
2019-02-17T09:33:57.617Z,15.63
2019-02-17T09:36:24.065Z,16.40
2019-02-17T09:38:50.424Z,16.32
2019-02-17T09:41:16.738Z,14.40
2019-02-17T09:43:45.459Z,14.87
2019-02-17T09:46:11.317Z,17.42
2019-02-17T09:48:37.756Z,16.12
2019-02-17T09:51:04.321Z,13.72
2019-02-17T09:53:30.757Z,13.88
2019-02-17T09:55:59.071Z,17.25
2019-02-17T09:58:25.652Z,16.45
2019-02-17T10:00:52.155Z,15.72
2019-02-17T10:03:18.496Z,17.60
2019-02-17T10:05:44.837Z,16.77
2019-02-17T10:08:11.133Z,16.55
2019-02-17T10:10:37.636Z,16.77
2019-02-17T10:13:03.975Z,17.15
2019-02-17T10:15:30.340Z,17.60
2019-02-17T10:17:56.635Z,17.98
2019-02-17T10:20:24.489Z,20.30
2019-02-17T10:22:51.256Z,20.70
2019-02-17T10:25:17.667Z,20.15
2019-02-17T10:27:43.973Z,23.57
2019-02-17T10:30:12.830Z,20.52
2019-02-17T10:32:39.390Z,25.48
2019-02-17T10:35:05.978Z,22.82
2019-02-17T10:37:32.420Z,27.77
2019-02-17T10:39:59.839Z,25.43
2019-02-17T10:42:26.323Z,23.47
2019-02-17T10:44:52.745Z,23.77
2019-02-17T10:47:19.281Z,25.25
2019-02-17T10:49:45.709Z,24.05
2019-02-17T10:52:11.990Z,24.43
2019-02-17T10:54:38.296Z,24.18
2019-02-17T10:57:04.840Z,25.50
2019-02-17T10:59:31.273Z,25.52
2019-02-17T11:01:57.555Z,24.43
2019-02-17T11:04:24.041Z,25.30
2019-02-17T11:06:50.429Z,24.90
2019-02-17T11:09:18.643Z,25.23
2019-02-17T11:11:45.150Z,26.80
2019-02-17T11:14:11.428Z,26.50
2019-02-17T11:16:38.029Z,23.73
2019-02-17T11:19:04.418Z,22.13
2019-02-17T11:21:30.859Z,29.05
2019-02-17T11:23:57.284Z,27.00
2019-02-17T11:26:23.953Z,23.57
2019-02-17T11:28:51.157Z,24.92
2019-02-17T11:31:17.830Z,23.30
2019-02-17T11:33:44.352Z,23.55
2019-02-17T11:36:10.895Z,26.07
2019-02-17T11:38:37.823Z,29.32
2019-02-17T11:41:04.675Z,25.52
2019-02-17T11:43:30.956Z,26.35
2019-02-17T11:45:57.527Z,25.02
2019-02-17T11:48:23.963Z,22.60
2019-02-17T11:50:50.651Z,27.40
2019-02-17T11:53:17.072Z,26.70
2019-02-17T11:55:43.488Z,27.40
2019-02-17T11:58:09.913Z,24.27
2019-02-17T12:00:36.300Z,27.32
2019-02-17T12:03:07.899Z,34.15
2019-02-17T12:05:31.114Z,26.85
2019-02-17T12:07:57.538Z,22.70
2019-02-17T12:10:23.935Z,23.52
2019-02-17T12:12:50.413Z,21.87
2019-02-17T12:15:16.935Z,26.93
2019-02-17T12:17:43.249Z,24.32
2019-02-17T12:20:30.942Z,27.02
2019-02-17T12:22:59.138Z,25.88
2019-02-17T12:25:27.325Z,25.17
2019-02-17T12:27:55.656Z,26.25
2019-02-17T12:30:22.096Z,25.17
2019-02-17T12:32:48.407Z,24.85
2019-02-17T12:35:14.925Z,26.10
2019-02-17T12:37:41.225Z,28.90
2019-02-17T12:40:09.141Z,24.72
2019-02-17T12:42:35.446Z,20.03
2019-02-17T12:45:02.046Z,22.83
2019-02-17T12:47:28.515Z,19.33
2019-02-17T12:49:54.857Z,23.63
2019-02-17T12:52:21.171Z,21.93
2019-02-17T12:54:48.421Z,19.50
2019-02-17T12:57:14.737Z,20.97
2019-02-17T12:59:41.229Z,19.63
2019-02-17T13:02:07.617Z,18.10
2019-02-17T13:04:33.942Z,17.60
2019-02-17T13:07:00.328Z,18.20
2019-02-17T13:09:26.664Z,19.00
2019-02-17T13:11:53.182Z,20.57
2019-02-17T13:14:19.664Z,18.40
2019-02-17T13:16:46.033Z,20.13
2019-02-17T13:19:12.335Z,22.43
2019-02-17T13:21:38.683Z,20.63
2019-02-17T13:24:05.052Z,19.93
2019-02-17T13:26:31.332Z,18.00
2019-02-17T13:28:57.937Z,19.23
2019-02-17T13:31:24.526Z,21.27
2019-02-17T13:33:50.808Z,20.33
2019-02-17T13:36:17.204Z,16.33
2019-02-17T13:38:43.587Z,18.57
2019-02-17T13:41:10.180Z,18.87
2019-02-17T13:43:36.469Z,21.13
2019-02-17T13:46:02.857Z,18.70
2019-02-17T13:48:29.329Z,18.33
2019-02-17T13:50:55.740Z,16.50
2019-02-17T13:53:22.236Z,16.03
2019-02-17T13:55:48.544Z,16.00
2019-02-17T13:58:14.957Z,16.27
2019-02-17T14:00:41.352Z,15.97
2019-02-17T14:03:07.835Z,15.93
2019-02-17T14:05:34.240Z,18.10
2019-02-17T14:08:00.647Z,15.23
2019-02-17T14:10:26.968Z,17.00
2019-02-17T14:12:53.271Z,16.50
2019-02-17T14:15:19.892Z,15.80
2019-02-17T14:17:46.376Z,15.20
2019-02-17T14:20:12.829Z,15.73
2019-02-17T14:22:39.316Z,15.50
2019-02-17T14:25:10.858Z,18.20
2019-02-17T14:27:37.105Z,15.90
2019-02-17T14:30:17.612Z,16.07
2019-02-17T14:32:44.130Z,16.70
2019-02-17T14:35:10.881Z,16.30
2019-02-17T14:37:37.286Z,15.27
2019-02-17T14:40:06.961Z,14.53
2019-02-17T14:42:33.469Z,16.10
2019-02-17T14:45:00.230Z,14.07
2019-02-17T14:47:26.663Z,15.33
2019-02-17T14:49:53.524Z,14.93
2019-02-17T14:52:20.227Z,14.23
2019-02-17T14:54:46.609Z,14.63
2019-02-17T14:57:13.105Z,13.70
2019-02-17T14:59:39.772Z,14.17
2019-02-17T15:02:06.175Z,13.43
2019-02-17T15:04:32.824Z,14.87
2019-02-17T15:06:59.206Z,13.63
2019-02-17T15:09:25.499Z,13.93
2019-02-17T15:11:52.905Z,14.67
2019-02-17T15:14:19.320Z,14.03
2019-02-17T15:16:45.668Z,13.60
2019-02-17T15:19:12.070Z,15.20
2019-02-17T15:21:38.561Z,15.70
2019-02-17T15:24:05.048Z,14.57
2019-02-17T15:26:31.483Z,18.20
2019-02-17T15:28:57.948Z,16.37
2019-02-17T15:31:24.960Z,13.47
2019-02-17T15:33:51.490Z,14.17
2019-02-17T15:36:17.936Z,13.60
2019-02-17T15:38:44.410Z,13.50
2019-02-17T15:41:10.803Z,13.53
2019-02-17T15:43:37.224Z,13.90
2019-02-17T15:46:03.670Z,16.73
2019-02-17T15:48:30.883Z,14.63
2019-02-17T15:51:06.323Z,13.70
2019-02-17T15:53:27.465Z,14.17
2019-02-17T15:55:55.313Z,14.13
2019-02-17T15:58:23.004Z,14.47
2019-02-17T16:00:50.218Z,15.77
2019-02-17T16:03:17.179Z,13.53
2019-02-17T16:05:44.020Z,12.83
2019-02-17T16:08:10.390Z,13.80
2019-02-17T16:10:36.711Z,14.40
2019-02-17T16:13:03.185Z,14.97
2019-02-17T16:15:29.497Z,15.30
2019-02-17T16:17:55.876Z,14.40
2019-02-17T16:20:22.157Z,15.00
2019-02-17T16:22:48.532Z,14.57
2019-02-17T16:25:15.025Z,15.43
2019-02-17T16:27:41.288Z,16.60
2019-02-17T16:30:21.137Z,16.33
2019-02-17T16:32:47.484Z,13.90
2019-02-17T16:35:14.034Z,15.20
2019-02-17T16:37:40.474Z,15.23
2019-02-17T16:40:09.503Z,14.60
2019-02-17T16:42:35.775Z,14.03
2019-02-17T16:45:03.495Z,16.70
2019-02-17T16:47:29.753Z,15.93
2019-02-17T16:49:56.053Z,16.50
2019-02-17T16:52:22.423Z,14.80
2019-02-17T16:54:48.842Z,15.10
2019-02-17T16:57:15.237Z,14.73
2019-02-17T16:59:41.725Z,15.27
2019-02-17T17:02:08.317Z,14.53
2019-02-17T17:04:34.743Z,14.53
2019-02-17T17:07:01.170Z,15.23
2019-02-17T17:09:27.476Z,13.70
2019-02-17T17:11:53.827Z,14.13
2019-02-17T17:14:20.257Z,13.70
2019-02-17T17:16:46.633Z,15.03
2019-02-17T17:19:12.924Z,14.20
2019-02-17T17:21:39.245Z,14.70
2019-02-17T17:24:05.770Z,15.40
2019-02-17T17:26:32.141Z,17.17
2019-02-17T17:28:58.420Z,14.60
2019-02-17T17:31:24.685Z,16.27
2019-02-17T17:33:51.122Z,17.47
2019-02-17T17:36:17.394Z,16.07
2019-02-17T17:38:43.816Z,13.83
2019-02-17T17:41:10.189Z,17.13
2019-02-17T17:43:36.506Z,14.87
2019-02-17T17:46:02.869Z,15.43
2019-02-17T17:48:29.160Z,15.53
2019-02-17T17:50:55.468Z,16.40
2019-02-17T17:53:21.753Z,16.65
2019-02-17T17:55:48.168Z,15.65
2019-02-17T17:58:14.461Z,16.37
2019-02-17T18:00:40.755Z,18.65
2019-02-17T18:03:07.178Z,15.18
2019-02-17T18:05:33.583Z,18.37
2019-02-17T18:07:59.948Z,18.02
2019-02-17T18:10:26.340Z,21.33
2019-02-17T18:12:52.753Z,21.07
2019-02-17T18:15:19.427Z,20.05
2019-02-17T18:17:53.971Z,17.92
2019-02-17T18:20:14.256Z,17.87
2019-02-17T18:22:40.632Z,20.60
2019-02-17T18:25:11.637Z,19.52
2019-02-17T18:27:38.113Z,21.37
2019-02-17T18:30:16.668Z,26.80
2019-02-17T18:32:43.057Z,19.80
2019-02-17T18:35:19.172Z,21.30
2019-02-17T18:37:38.037Z,21.10
2019-02-17T18:40:10.186Z,21.90
2019-02-17T18:42:36.564Z,20.37
2019-02-17T18:45:05.829Z,18.48
2019-02-17T18:47:32.247Z,18.90
2019-02-17T18:49:58.665Z,18.80
2019-02-17T18:52:25.033Z,16.40
2019-02-17T18:54:51.410Z,19.90
2019-02-17T18:57:17.805Z,15.68
2019-02-17T18:59:44.250Z,16.05
2019-02-17T19:02:10.743Z,16.48
2019-02-17T19:04:37.209Z,17.90
2019-02-17T19:07:03.653Z,17.15
2019-02-17T19:09:30.050Z,17.55
2019-02-17T19:11:56.416Z,20.37
2019-02-17T19:14:22.692Z,25.30
2019-02-17T19:16:49.031Z,19.65
2019-02-17T19:19:15.332Z,18.60
2019-02-17T19:21:41.592Z,20.97
2019-02-17T19:24:08.031Z,19.25
2019-02-17T19:26:34.328Z,25.85
2019-02-17T19:29:00.598Z,26.82
2019-02-17T19:31:26.922Z,23.47
2019-02-17T19:33:53.356Z,18.02
2019-02-17T19:36:19.741Z,20.15
2019-02-17T19:38:46.245Z,17.57
2019-02-17T19:41:12.536Z,18.65
2019-02-17T19:43:38.856Z,20.88
2019-02-17T19:46:05.234Z,17.80
2019-02-17T19:48:31.643Z,20.50
2019-02-17T19:50:58.159Z,24.90
2019-02-17T19:53:24.694Z,23.92
2019-02-17T19:55:51.105Z,24.00
2019-02-17T19:58:17.419Z,21.62
2019-02-17T20:00:43.880Z,20.45
2019-02-17T20:03:17.882Z,24.40
2019-02-17T20:05:51.968Z,23.05
2019-02-17T20:08:14.301Z,22.45
2019-02-17T20:10:40.686Z,23.07
2019-02-17T20:13:10.630Z,22.98
2019-02-17T20:15:37.380Z,26.60
2019-02-17T20:18:04.911Z,24.43
2019-02-17T20:20:31.198Z,28.10
2019-02-17T20:22:57.592Z,25.30
2019-02-17T20:25:23.974Z,24.80
2019-02-17T20:27:50.250Z,25.55
2019-02-17T20:30:16.556Z,23.75
2019-02-17T20:32:42.911Z,23.42
2019-02-17T20:35:09.283Z,22.65
2019-02-17T20:37:35.673Z,27.40
2019-02-17T20:40:04.335Z,23.35
2019-02-17T20:42:30.626Z,23.90
2019-02-17T20:44:57.001Z,24.70
2019-02-17T20:47:23.332Z,24.27
2019-02-17T20:49:49.618Z,21.97
2019-02-17T20:52:15.897Z,23.50
2019-02-17T20:54:42.180Z,19.87
2019-02-17T20:57:08.656Z,21.40
2019-02-17T20:59:35.082Z,21.02
2019-02-17T21:02:01.425Z,17.85
2019-02-17T21:04:27.860Z,17.95
2019-02-17T21:06:54.152Z,18.65
2019-02-17T21:09:20.707Z,18.17
2019-02-17T21:11:46.956Z,22.55
2019-02-17T21:14:13.414Z,23.98
2019-02-17T21:16:39.761Z,18.65
2019-02-17T21:19:06.052Z,20.32
2019-02-17T21:21:32.429Z,17.60
2019-02-17T21:23:58.721Z,18.00
2019-02-17T21:26:26.385Z,16.52
2019-02-17T21:28:52.864Z,16.00
2019-02-17T21:31:19.260Z,24.10
2019-02-17T21:33:45.529Z,19.15
2019-02-17T21:36:11.809Z,17.95
2019-02-17T21:38:38.192Z,21.82
2019-02-17T21:41:09.287Z,16.77
2019-02-17T21:43:32.548Z,18.85
2019-02-17T21:45:58.946Z,19.05
2019-02-17T21:48:25.274Z,19.20
2019-02-17T21:50:51.722Z,20.92
2019-02-17T21:53:20.796Z,15.35
2019-02-17T21:55:46.121Z,16.20
2019-02-17T21:58:12.496Z,14.83
2019-02-17T22:00:38.757Z,15.55
2019-02-17T22:03:05.058Z,15.72
2019-02-17T22:05:31.324Z,16.60
2019-02-17T22:07:57.709Z,16.25
2019-02-17T22:10:23.963Z,17.20
2019-02-17T22:12:51.262Z,20.32
2019-02-17T22:15:22.276Z,21.68
2019-02-17T22:17:48.729Z,21.17
2019-02-17T22:20:15.128Z,17.87
2019-02-17T22:22:41.494Z,16.23
2019-02-17T22:25:09.160Z,18.77
2019-02-17T22:27:35.473Z,22.15
2019-02-17T22:30:02.573Z,22.42
2019-02-17T22:32:29.147Z,24.25
2019-02-17T22:34:55.429Z,25.45
2019-02-17T22:37:21.727Z,23.42
2019-02-17T22:39:48.411Z,20.55
2019-02-17T22:42:14.725Z,19.73
2019-02-17T22:44:41.000Z,26.68
2019-02-17T22:47:07.288Z,22.65
2019-02-17T22:49:33.592Z,19.52
2019-02-17T22:51:59.869Z,26.33
2019-02-17T22:54:26.279Z,34.78
2019-02-17T22:56:54.477Z,25.37
2019-02-17T22:59:20.781Z,25.45
2019-02-17T23:01:47.284Z,22.20
2019-02-17T23:04:13.667Z,22.17
2019-02-17T23:06:40.117Z,22.70
2019-02-17T23:09:07.152Z,21.68
2019-02-17T23:11:33.616Z,20.25
2019-02-17T23:14:00.033Z,23.80
2019-02-17T23:16:26.316Z,22.13
2019-02-17T23:18:52.626Z,22.98
2019-02-17T23:21:19.004Z,18.35
2019-02-17T23:23:45.270Z,21.82
2019-02-17T23:26:11.768Z,23.87
2019-02-17T23:28:38.216Z,21.25
2019-02-17T23:31:04.714Z,21.90
2019-02-17T23:33:31.182Z,25.75
2019-02-17T23:35:57.583Z,21.02
2019-02-17T23:38:23.857Z,23.80
2019-02-17T23:40:50.162Z,19.95
2019-02-17T23:43:16.425Z,20.82
2019-02-17T23:45:44.559Z,23.92
2019-02-17T23:48:10.794Z,20.90
2019-02-17T23:50:37.252Z,20.82
2019-02-17T23:53:03.757Z,23.32
2019-02-17T23:55:30.112Z,23.77
2019-02-17T23:57:56.606Z,21.17
